createdAt,value
2019-05-29T00:01:09.040Z,10.30
2019-05-29T00:03:52.102Z,10.29
2019-05-29T00:06:39.449Z,10.29
2019-05-29T00:09:26.735Z,10.26
2019-05-29T00:12:18.398Z,10.22
2019-05-29T00:15:01.052Z,10.19
2019-05-29T00:17:49.107Z,10.18
2019-05-29T00:20:36.848Z,10.16
2019-05-29T00:23:24.107Z,10.17
2019-05-29T00:26:12.482Z,10.15
2019-05-29T00:28:59.550Z,10.11
2019-05-29T00:31:47.172Z,10.06
2019-05-29T00:34:34.631Z,10.03
2019-05-29T00:37:22.040Z,10.04
2019-05-29T00:40:09.350Z,10.01
2019-05-29T00:42:57.150Z,9.99
2019-05-29T00:45:44.499Z,9.96
2019-05-29T00:48:31.962Z,9.88
2019-05-29T00:51:20.054Z,9.86
2019-05-29T00:54:08.209Z,9.85
2019-05-29T00:56:54.719Z,9.79
2019-05-29T00:59:42.740Z,9.77
2019-05-29T01:02:29.879Z,9.76
2019-05-29T01:05:18.174Z,9.71
2019-05-29T01:08:05.299Z,9.66
2019-05-29T01:10:53.482Z,9.61
2019-05-29T01:13:40.846Z,9.63
2019-05-29T01:16:27.918Z,9.51
2019-05-29T01:19:26.882Z,9.47
2019-05-29T01:22:14.362Z,9.44
2019-05-29T01:25:02.214Z,9.37
2019-05-29T01:27:49.966Z,9.32
2019-05-29T01:30:37.126Z,9.28
2019-05-29T01:33:25.050Z,9.24
2019-05-29T01:36:12.019Z,9.17
2019-05-29T01:38:59.252Z,9.11
2019-05-29T01:41:46.823Z,9.06
2019-05-29T01:44:34.341Z,8.97
2019-05-29T01:47:21.918Z,8.85
2019-05-29T01:50:09.947Z,8.80
2019-05-29T01:52:57.900Z,8.74
2019-05-29T01:55:45.066Z,8.72
2019-05-29T01:58:32.497Z,8.65
2019-05-29T02:01:20.248Z,8.57
2019-05-29T02:04:08.118Z,8.51
2019-05-29T02:06:55.522Z,8.44
2019-05-29T02:09:43.072Z,8.35
2019-05-29T02:12:31.103Z,8.34
2019-05-29T02:15:27.038Z,8.25
2019-05-29T02:18:06.193Z,8.22
2019-05-29T02:20:54.206Z,8.17
2019-05-29T02:23:42.182Z,8.15
2019-05-29T02:26:29.670Z,8.07
2019-05-29T02:29:18.463Z,8.08
2019-05-29T02:32:05.351Z,8.01
2019-05-29T02:34:52.623Z,7.86
2019-05-29T02:37:40.556Z,7.80
2019-05-29T02:40:30.118Z,7.80
2019-05-29T02:43:16.128Z,7.70
2019-05-29T02:46:04.029Z,7.70
2019-05-29T02:48:51.617Z,7.70
2019-05-29T02:51:39.691Z,7.62
2019-05-29T02:54:27.712Z,7.49
2019-05-29T02:57:14.340Z,7.49
2019-05-29T03:00:02.077Z,7.43
2019-05-29T03:02:50.065Z,7.43
2019-05-29T03:05:38.020Z,7.43
2019-05-29T03:08:27.087Z,7.42
2019-05-29T03:11:13.124Z,7.41
2019-05-29T03:14:00.493Z,7.41
2019-05-29T03:16:47.827Z,7.34
2019-05-29T03:19:35.705Z,7.30
2019-05-29T03:22:24.109Z,7.30
2019-05-29T03:25:10.960Z,7.28
2019-05-29T03:27:58.192Z,7.28
2019-05-29T03:30:46.651Z,7.35
2019-05-29T03:33:40.878Z,7.37
2019-05-29T03:36:21.681Z,7.40
2019-05-29T03:39:09.442Z,7.41
2019-05-29T03:41:56.942Z,7.43
2019-05-29T03:44:44.271Z,7.48
2019-05-29T03:47:33.198Z,7.48
2019-05-29T03:50:19.482Z,7.52
2019-05-29T03:53:06.795Z,7.49
2019-05-29T03:55:54.322Z,7.51
2019-05-29T03:58:41.881Z,7.51
2019-05-29T04:01:31.291Z,7.58
2019-05-29T04:04:17.425Z,7.61
2019-05-29T04:07:04.627Z,7.72
2019-05-29T04:09:52.505Z,7.78
2019-05-29T04:12:39.842Z,7.85
2019-05-29T04:15:27.580Z,7.97
2019-05-29T04:18:14.487Z,7.97
2019-05-29T04:21:02.585Z,8.00
2019-05-29T04:23:50.171Z,8.06
2019-05-29T04:26:40.723Z,8.11
2019-05-29T04:29:29.848Z,8.14
2019-05-29T04:32:15.392Z,8.14
2019-05-29T04:35:02.817Z,8.21
2019-05-29T04:37:50.679Z,8.32
2019-05-29T04:40:39.564Z,8.32
2019-05-29T04:43:25.822Z,8.38
2019-05-29T04:46:13.477Z,8.44
2019-05-29T04:49:00.782Z,8.44
2019-05-29T04:51:48.630Z,8.53
2019-05-29T04:54:37.427Z,8.67
2019-05-29T04:57:23.303Z,8.72
2019-05-29T05:00:10.522Z,8.78
2019-05-29T05:02:58.492Z,8.81
2019-05-29T05:05:46.538Z,8.91
2019-05-29T05:08:33.753Z,9.07
2019-05-29T05:11:20.846Z,9.15
2019-05-29T05:14:08.258Z,9.30
2019-05-29T05:16:55.620Z,9.33
2019-05-29T05:19:43.139Z,9.43
2019-05-29T05:22:30.275Z,9.54
2019-05-29T05:25:18.358Z,9.66
2019-05-29T05:28:06.176Z,9.74
2019-05-29T05:30:53.448Z,9.79
2019-05-29T05:33:41.342Z,9.92
2019-05-29T05:36:28.762Z,10.02
2019-05-29T05:39:16.393Z,10.12
2019-05-29T05:42:03.692Z,10.14
2019-05-29T05:44:51.194Z,10.22
2019-05-29T05:47:50.078Z,10.19
2019-05-29T05:50:26.618Z,10.22
2019-05-29T05:53:14.524Z,10.40
2019-05-29T05:56:01.986Z,10.52
2019-05-29T05:58:49.350Z,10.67
2019-05-29T06:01:37.836Z,10.76
2019-05-29T06:04:24.262Z,10.85
2019-05-29T06:07:12.388Z,10.96
2019-05-29T06:09:59.896Z,11.12
2019-05-29T06:12:47.771Z,10.14
2019-05-29T06:15:36.500Z,11.14
2019-05-29T06:18:23.276Z,11.27
2019-05-29T06:21:10.636Z,11.36
2019-05-29T06:23:58.495Z,11.37
2019-05-29T06:26:45.864Z,11.29
2019-05-29T06:29:33.537Z,11.16
2019-05-29T06:32:20.858Z,11.27
2019-05-29T06:35:08.367Z,11.54
2019-05-29T06:37:56.040Z,11.89
2019-05-29T06:40:44.034Z,11.99
2019-05-29T06:43:31.513Z,12.10
2019-05-29T06:46:18.869Z,12.26
2019-05-29T06:49:06.660Z,12.44
2019-05-29T06:51:53.865Z,12.63
2019-05-29T06:54:42.077Z,12.87
2019-05-29T06:57:28.919Z,12.94
2019-05-29T07:00:33.963Z,12.99
2019-05-29T07:03:04.116Z,12.99
2019-05-29T07:05:52.932Z,12.92
2019-05-29T07:08:44.475Z,13.35
2019-05-29T07:11:26.604Z,13.67
2019-05-29T07:14:14.508Z,13.88
2019-05-29T07:17:01.732Z,13.92
2019-05-29T07:20:02.324Z,13.79
2019-05-29T07:22:36.985Z,13.84
2019-05-29T07:25:23.420Z,13.92
2019-05-29T07:28:10.920Z,14.49
2019-05-29T07:31:02.781Z,14.63
2019-05-29T07:33:45.776Z,14.76
2019-05-29T07:36:33.712Z,14.81
2019-05-29T07:39:21.475Z,14.99
2019-05-29T07:42:08.784Z,14.82
2019-05-29T07:44:56.749Z,14.76
2019-05-29T07:47:44.828Z,14.65
2019-05-29T07:50:32.030Z,14.46
2019-05-29T07:53:19.262Z,14.27
2019-05-29T07:56:21.550Z,14.20
2019-05-29T07:59:02.501Z,14.61
2019-05-29T08:01:42.787Z,14.99
2019-05-29T08:04:29.392Z,15.28
2019-05-29T08:07:17.217Z,14.88
2019-05-29T08:10:05.461Z,14.33
2019-05-29T08:12:55.461Z,13.96
2019-05-29T08:15:53.945Z,13.54
2019-05-29T08:18:28.947Z,13.25
2019-05-29T08:21:16.371Z,13.20
2019-05-29T08:24:04.324Z,13.56
2019-05-29T08:26:51.757Z,14.33
2019-05-29T08:29:40.509Z,14.86
2019-05-29T08:32:26.454Z,15.22
2019-05-29T08:35:14.332Z,15.67
2019-05-29T08:38:01.476Z,15.65
2019-05-29T08:40:49.528Z,14.70
2019-05-29T08:43:36.919Z,15.07
2019-05-29T08:46:24.241Z,14.65
2019-05-29T08:49:11.642Z,14.68
2019-05-29T08:52:11.287Z,14.90
2019-05-29T08:54:46.658Z,15.07
2019-05-29T08:57:33.807Z,15.39
2019-05-29T09:00:21.872Z,15.70
2019-05-29T09:03:09.298Z,16.01
2019-05-29T09:06:08.363Z,16.17
2019-05-29T09:08:46.190Z,15.68
2019-05-29T09:11:31.590Z,15.40
2019-05-29T09:14:18.978Z,15.60
2019-05-29T09:17:06.806Z,15.66
2019-05-29T09:19:54.773Z,15.74
2019-05-29T09:22:42.443Z,15.90
2019-05-29T09:25:30.383Z,16.04
2019-05-29T09:28:19.974Z,16.64
2019-05-29T09:31:04.660Z,17.11
2019-05-29T09:33:52.563Z,17.75
2019-05-29T09:36:40.011Z,18.39
2019-05-29T09:39:27.734Z,18.51
2019-05-29T09:42:17.402Z,19.02
2019-05-29T09:45:03.156Z,18.98
2019-05-29T09:47:50.492Z,17.92
2019-05-29T09:50:49.438Z,17.19
2019-05-29T09:53:25.143Z,16.90
2019-05-29T09:56:12.454Z,16.47
2019-05-29T09:59:01.671Z,16.99
2019-05-29T10:01:47.952Z,17.33
2019-05-29T10:04:35.508Z,17.93
2019-05-29T10:07:22.791Z,18.72
2019-05-29T10:10:10.144Z,19.14
2019-05-29T10:12:58.127Z,19.03
2019-05-29T10:15:45.372Z,18.62
2019-05-29T10:18:33.145Z,18.16
2019-05-29T10:21:38.161Z,18.16
2019-05-29T10:24:08.103Z,17.94
2019-05-29T10:26:57.485Z,17.23
2019-05-29T10:29:44.492Z,17.58
2019-05-29T10:32:30.854Z,17.77
2019-05-29T10:35:18.298Z,17.82
2019-05-29T10:38:06.253Z,17.48
2019-05-29T10:41:05.573Z,17.47
2019-05-29T10:43:41.248Z,17.28
2019-05-29T10:46:28.657Z,16.94
2019-05-29T10:49:16.149Z,17.19
2019-05-29T10:52:16.027Z,17.58
2019-05-29T10:54:54.357Z,17.32
2019-05-29T10:57:40.669Z,17.66
2019-05-29T11:00:28.019Z,18.12
2019-05-29T11:03:15.689Z,18.08
2019-05-29T11:06:03.174Z,18.21
2019-05-29T11:08:50.498Z,17.69
2019-05-29T11:11:37.950Z,17.53
2019-05-29T11:14:25.400Z,18.00
2019-05-29T11:17:12.980Z,18.56
2019-05-29T11:20:00.624Z,18.81
2019-05-29T11:22:47.951Z,18.44
2019-05-29T11:25:35.617Z,18.28
2019-05-29T11:28:22.980Z,17.90
2019-05-29T11:31:10.689Z,17.42
2019-05-29T11:33:59.231Z,17.50
2019-05-29T11:36:45.920Z,16.87
2019-05-29T11:39:33.355Z,17.10
2019-05-29T11:42:27.195Z,17.12
2019-05-29T11:45:09.519Z,17.25
2019-05-29T11:47:58.962Z,17.27
2019-05-29T11:50:44.452Z,17.41
2019-05-29T11:53:31.905Z,17.48
2019-05-29T11:56:19.409Z,17.06
2019-05-29T11:59:07.253Z,16.66
2019-05-29T12:01:56.848Z,16.82
2019-05-29T12:04:42.664Z,17.31
2019-05-29T12:07:30.097Z,17.48
2019-05-29T12:10:17.691Z,18.13
2019-05-29T12:13:05.163Z,19.66
2019-05-29T12:15:53.520Z,20.68
2019-05-29T12:18:39.898Z,20.81
2019-05-29T12:21:27.186Z,20.84
2019-05-29T12:24:15.239Z,21.61
2019-05-29T12:27:02.796Z,21.62
2019-05-29T12:29:50.035Z,21.89
2019-05-29T12:32:37.135Z,22.50
2019-05-29T12:35:25.042Z,23.21
2019-05-29T12:38:12.523Z,23.54
2019-05-29T12:41:01.663Z,22.97
2019-05-29T12:43:47.647Z,23.54
2019-05-29T12:46:35.447Z,24.22
2019-05-29T12:49:22.937Z,25.04
2019-05-29T12:52:10.426Z,23.67
2019-05-29T12:54:58.038Z,24.36
2019-05-29T12:57:45.363Z,24.27
2019-05-29T13:00:33.009Z,24.49
2019-05-29T13:03:20.461Z,24.80
2019-05-29T13:06:07.671Z,25.41
2019-05-29T13:08:56.318Z,25.33
2019-05-29T13:11:42.630Z,24.99
2019-05-29T13:14:30.637Z,24.37
2019-05-29T13:17:18.896Z,23.45
2019-05-29T13:20:20.131Z,22.56
2019-05-29T13:22:55.500Z,21.24
2019-05-29T13:25:41.771Z,20.57
2019-05-29T13:28:29.307Z,20.34
2019-05-29T13:31:16.853Z,20.73
2019-05-29T13:34:04.464Z,20.54
2019-05-29T13:36:52.165Z,19.93
2019-05-29T13:39:39.388Z,20.02
2019-05-29T13:42:26.978Z,20.07
2019-05-29T13:45:18.195Z,18.76
2019-05-29T13:48:03.252Z,19.34
2019-05-29T13:50:50.322Z,19.72
2019-05-29T13:53:37.463Z,20.00
2019-05-29T13:56:25.060Z,20.85
2019-05-29T13:59:12.303Z,20.98
2019-05-29T14:02:00.425Z,20.58
2019-05-29T14:04:47.857Z,19.77
2019-05-29T14:07:35.260Z,19.16
2019-05-29T14:10:22.669Z,18.67
2019-05-29T14:13:09.997Z,18.71
2019-05-29T14:15:57.623Z,18.75
2019-05-29T14:18:45.031Z,18.68
2019-05-29T14:21:32.537Z,18.44
2019-05-29T14:24:29.131Z,18.27
2019-05-29T14:27:07.539Z,17.96
2019-05-29T14:29:54.658Z,18.11
2019-05-29T14:32:42.279Z,17.98
2019-05-29T14:35:30.414Z,18.54
2019-05-29T14:38:18.112Z,19.65
2019-05-29T14:41:05.767Z,20.74
2019-05-29T14:43:52.870Z,21.86
2019-05-29T14:46:40.813Z,22.92
2019-05-29T14:49:28.183Z,23.60
2019-05-29T14:52:15.381Z,24.15
2019-05-29T14:55:02.948Z,24.12
2019-05-29T14:57:50.308Z,23.59
2019-05-29T15:00:38.323Z,23.02
2019-05-29T15:03:26.308Z,22.79
2019-05-29T15:06:14.417Z,21.83
2019-05-29T15:09:03.515Z,21.57
2019-05-29T15:11:49.713Z,20.87
2019-05-29T15:14:37.659Z,20.36
2019-05-29T15:17:25.278Z,20.72
2019-05-29T15:20:16.178Z,21.60
2019-05-29T15:23:00.829Z,22.60
2019-05-29T15:25:48.280Z,22.92
2019-05-29T15:28:36.342Z,22.87
2019-05-29T15:31:24.344Z,22.63
2019-05-29T15:34:12.422Z,22.12
2019-05-29T15:36:59.248Z,20.96
2019-05-29T15:39:46.756Z,20.30
2019-05-29T15:42:34.244Z,19.87
2019-05-29T15:45:22.153Z,19.67
2019-05-29T15:48:11.033Z,19.59
2019-05-29T15:50:57.586Z,19.55
2019-05-29T15:53:45.612Z,19.55
2019-05-29T15:56:33.280Z,20.38
2019-05-29T15:59:21.413Z,20.62
2019-05-29T16:02:09.462Z,20.89
2019-05-29T16:04:57.344Z,20.68
2019-05-29T16:07:44.793Z,20.49
2019-05-29T16:10:32.926Z,20.31
2019-05-29T16:13:20.345Z,20.75
2019-05-29T16:16:09.427Z,21.04
2019-05-29T16:18:56.387Z,20.90
2019-05-29T16:21:43.991Z,21.06
2019-05-29T16:24:31.186Z,22.27
2019-05-29T16:27:18.663Z,22.54
2019-05-29T16:30:06.066Z,22.94
2019-05-29T16:32:53.493Z,23.96
2019-05-29T16:35:41.488Z,23.60
2019-05-29T16:38:28.982Z,22.86
2019-05-29T16:41:17.926Z,23.74
2019-05-29T16:44:04.572Z,25.55
2019-05-29T16:46:51.881Z,25.91
2019-05-29T16:49:39.600Z,26.29
2019-05-29T16:52:27.399Z,27.28
2019-05-29T16:55:15.440Z,28.44
2019-05-29T16:58:03.035Z,29.02
2019-05-29T17:00:51.018Z,28.61
2019-05-29T17:03:38.481Z,27.75
2019-05-29T17:06:25.898Z,26.68
2019-05-29T17:09:14.541Z,25.58
2019-05-29T17:12:02.054Z,24.38
2019-05-29T17:14:49.552Z,23.38
2019-05-29T17:17:36.855Z,23.34
2019-05-29T17:20:40.410Z,24.08
2019-05-29T17:23:28.364Z,24.75
2019-05-29T17:26:16.713Z,24.66
2019-05-29T17:29:03.677Z,24.06
2019-05-29T17:31:51.685Z,23.20
2019-05-29T17:34:39.192Z,22.68
2019-05-29T17:37:26.720Z,21.98
2019-05-29T17:40:14.932Z,21.40
2019-05-29T17:43:02.384Z,20.98
2019-05-29T17:45:50.499Z,20.77
2019-05-29T17:48:38.025Z,20.84
2019-05-29T17:51:26.035Z,20.96
2019-05-29T17:54:13.246Z,21.36
2019-05-29T17:57:00.605Z,21.72
2019-05-29T17:59:47.695Z,22.17
2019-05-29T18:02:50.822Z,23.13
2019-05-29T18:05:23.091Z,23.44
2019-05-29T18:08:10.687Z,24.30
2019-05-29T18:10:58.199Z,25.00
2019-05-29T18:13:45.994Z,25.66
2019-05-29T18:16:33.771Z,26.16
2019-05-29T18:19:21.735Z,26.39
2019-05-29T18:22:10.891Z,26.59
2019-05-29T18:24:58.179Z,26.78
2019-05-29T18:27:48.305Z,26.76
2019-05-29T18:30:35.596Z,26.32
2019-05-29T18:33:22.950Z,26.06
2019-05-29T18:36:10.441Z,25.63
2019-05-29T18:38:58.198Z,25.27
2019-05-29T18:41:45.749Z,25.00
2019-05-29T18:44:33.435Z,24.52
2019-05-29T18:47:21.130Z,23.82
2019-05-29T18:50:08.495Z,23.21
2019-05-29T18:52:56.354Z,22.67
2019-05-29T18:55:43.888Z,22.09
2019-05-29T18:58:32.349Z,21.20
2019-05-29T19:01:18.988Z,20.15
2019-05-29T19:04:06.921Z,19.39
2019-05-29T19:06:54.178Z,18.69
2019-05-29T19:09:41.858Z,18.01
2019-05-29T19:12:30.061Z,17.48
2019-05-29T19:15:17.492Z,17.07
2019-05-29T19:18:05.468Z,16.75
2019-05-29T19:20:52.923Z,16.42
2019-05-29T19:23:40.338Z,16.14
2019-05-29T19:26:28.770Z,15.83
2019-05-29T19:29:15.553Z,15.54
2019-05-29T19:32:03.034Z,15.25
2019-05-29T19:34:50.536Z,14.98
2019-05-29T19:37:37.813Z,14.76
2019-05-29T19:40:26.028Z,14.55
2019-05-29T19:43:12.625Z,14.37
2019-05-29T19:45:59.943Z,14.20
2019-05-29T19:48:47.788Z,14.04
2019-05-29T19:51:35.430Z,13.90
2019-05-29T19:54:22.922Z,13.77
2019-05-29T19:57:11.010Z,13.65
2019-05-29T19:59:58.469Z,13.52
2019-05-29T20:02:46.053Z,13.39
2019-05-29T20:05:33.311Z,13.28
2019-05-29T20:08:21.063Z,13.18
2019-05-29T20:11:08.423Z,13.09
2019-05-29T20:13:55.780Z,13.01
2019-05-29T20:16:43.204Z,12.95
2019-05-29T20:19:35.542Z,13.10
2019-05-29T20:22:18.499Z,13.31
2019-05-29T20:25:06.636Z,13.45
2019-05-29T20:28:05.945Z,13.58
2019-05-29T20:30:42.544Z,13.55
2019-05-29T20:33:28.866Z,13.44
2019-05-29T20:36:16.813Z,13.29
2019-05-29T20:39:06.370Z,13.16
2019-05-29T20:41:53.873Z,13.05
2019-05-29T20:44:42.956Z,12.93
2019-05-29T20:47:28.637Z,12.78
2019-05-29T20:50:16.282Z,12.67
2019-05-29T20:53:04.381Z,12.59
2019-05-29T20:55:52.268Z,12.51
2019-05-29T20:58:40.119Z,12.43
2019-05-29T21:01:28.177Z,12.37
2019-05-29T21:04:15.630Z,12.30
2019-05-29T21:07:03.556Z,12.26
2019-05-29T21:09:50.971Z,12.22
2019-05-29T21:12:42.485Z,12.16
2019-05-29T21:15:26.549Z,12.11
2019-05-29T21:18:14.451Z,12.06
2019-05-29T21:21:02.138Z,12.01
2019-05-29T21:23:49.537Z,11.94
2019-05-29T21:26:37.083Z,11.90
2019-05-29T21:29:24.344Z,11.88
2019-05-29T21:32:11.897Z,11.81
2019-05-29T21:34:59.411Z,11.79
2019-05-29T21:37:46.784Z,11.76
2019-05-29T21:40:34.118Z,11.72
2019-05-29T21:43:22.213Z,11.70
2019-05-29T21:46:09.590Z,11.66
2019-05-29T21:48:57.181Z,11.61
2019-05-29T21:51:45.768Z,11.58
2019-05-29T21:54:32.409Z,11.57
2019-05-29T21:57:20.345Z,11.56
2019-05-29T22:00:08.488Z,11.54
2019-05-29T22:02:55.711Z,11.54
2019-05-29T22:05:43.032Z,11.50
2019-05-29T22:08:30.990Z,11.48
2019-05-29T22:11:18.527Z,11.45
2019-05-29T22:14:06.663Z,11.44
2019-05-29T22:16:54.976Z,11.42
2019-05-29T22:19:41.416Z,11.40
2019-05-29T22:22:28.737Z,11.37
2019-05-29T22:25:16.065Z,11.37
2019-05-29T22:28:03.566Z,11.37
2019-05-29T22:30:51.273Z,11.35
2019-05-29T22:33:39.017Z,11.35
2019-05-29T22:36:26.463Z,11.37
2019-05-29T22:39:14.205Z,11.34
2019-05-29T22:42:02.091Z,11.34
2019-05-29T22:44:49.301Z,11.31
2019-05-29T22:47:36.833Z,11.30
2019-05-29T22:50:24.779Z,11.23
2019-05-29T22:53:12.453Z,11.19
2019-05-29T22:56:00.083Z,11.13
2019-05-29T22:58:47.614Z,11.10
2019-05-29T23:01:34.867Z,11.05
2019-05-29T23:04:22.841Z,10.99
2019-05-29T23:07:10.861Z,10.93
2019-05-29T23:09:58.773Z,10.92
2019-05-29T23:12:46.637Z,10.95
2019-05-29T23:15:33.792Z,10.98
2019-05-29T23:18:20.912Z,11.01
2019-05-29T23:21:08.805Z,11.03
2019-05-29T23:23:57.451Z,11.06
2019-05-29T23:26:43.424Z,11.09
2019-05-29T23:29:45.764Z,11.08
2019-05-29T23:32:18.815Z,11.05
2019-05-29T23:35:06.290Z,11.03
2019-05-29T23:37:53.693Z,11.00
2019-05-29T23:40:41.092Z,10.98
2019-05-29T23:43:28.725Z,10.96
2019-05-29T23:46:16.411Z,10.91
2019-05-29T23:49:04.394Z,10.89
2019-05-29T23:51:51.656Z,10.86
2019-05-29T23:54:38.981Z,10.83
2019-05-29T23:57:26.471Z,10.83
